sensor_id;sensor_type;location;lat;lon;timestamp;pressure;altitude;pressure_sealevel;temperature;humidity
20394;BME280;10356;50.544;9.642;2023-05-25T00:02:17;98978.19;;;6.82;99.14
20394;BME280;10356;50.544;9.642;2023-05-25T00:04:44;98976.44;;;6.82;99.17
20394;BME280;10356;50.544;9.642;2023-05-25T00:07:13;98976.59;;;6.79;99.57
20394;BME280;10356;50.544;9.642;2023-05-25T00:09:39;98975.16;;;6.73;99.55
20394;BME280;10356;50.544;9.642;2023-05-25T00:12:08;98976.31;;;6.68;99.30
20394;BME280;10356;50.544;9.642;2023-05-25T00:14:36;98972.97;;;6.66;99.83
20394;BME280;10356;50.544;9.642;2023-05-25T00:17:04;98984.53;;;6.59;99.47
20394;BME280;10356;50.544;9.642;2023-05-25T00:19:30;98977.00;;;6.54;99.87
20394;BME280;10356;50.544;9.642;2023-05-25T00:21:58;98981.41;;;6.52;99.82
20394;BME280;10356;50.544;9.642;2023-05-25T00:24:27;98975.47;;;6.50;99.55
20394;BME280;10356;50.544;9.642;2023-05-25T00:26:53;98984.34;;;6.45;99.35
20394;BME280;10356;50.544;9.642;2023-05-25T00:29:20;98980.16;;;6.42;99.51
20394;BME280;10356;50.544;9.642;2023-05-25T00:31:48;98978.63;;;6.38;99.51
20394;BME280;10356;50.544;9.642;2023-05-25T00:34:15;98974.59;;;6.33;99.72
20394;BME280;10356;50.544;9.642;2023-05-25T00:36:41;98976.44;;;6.31;99.63
20394;BME280;10356;50.544;9.642;2023-05-25T00:39:08;98978.13;;;6.32;99.17
20394;BME280;10356;50.544;9.642;2023-05-25T00:41:35;98971.56;;;6.25;99.66
20394;BME280;10356;50.544;9.642;2023-05-25T00:44:05;98970.72;;;6.24;99.66
20394;BME280;10356;50.544;9.642;2023-05-25T00:46:33;98972.63;;;6.21;99.90
20394;BME280;10356;50.544;9.642;2023-05-25T00:49:01;98972.69;;;6.19;100.00
20394;BME280;10356;50.544;9.642;2023-05-25T00:51:28;98977.03;;;6.19;100.00
20394;BME280;10356;50.544;9.642;2023-05-25T00:53:57;98973.84;;;6.14;100.00
20394;BME280;10356;50.544;9.642;2023-05-25T00:56:25;98976.56;;;6.11;100.00
20394;BME280;10356;50.544;9.642;2023-05-25T00:58:54;98973.06;;;6.12;100.00
20394;BME280;10356;50.544;9.642;2023-05-25T01:01:24;98976.72;;;6.08;100.00
20394;BME280;10356;50.544;9.642;2023-05-25T01:03:52;98977.81;;;6.02;100.00
20394;BME280;10356;50.544;9.642;2023-05-25T01:06:21;98977.22;;;5.97;100.00
20394;BME280;10356;50.544;9.642;2023-05-25T01:08:52;98970.22;;;5.99;100.00
20394;BME280;10356;50.544;9.642;2023-05-25T01:11:25;98974.56;;;5.99;100.00
20394;BME280;10356;50.544;9.642;2023-05-25T01:13:53;98969.38;;;5.99;100.00
20394;BME280;10356;50.544;9.642;2023-05-25T01:16:20;98977.91;;;6.01;100.00
20394;BME280;10356;50.544;9.642;2023-05-25T01:18:47;98976.38;;;5.97;100.00
20394;BME280;10356;50.544;9.642;2023-05-25T01:21:20;98978.19;;;5.94;100.00
20394;BME280;10356;50.544;9.642;2023-05-25T01:23:52;98966.19;;;5.93;100.00
20394;BME280;10356;50.544;9.642;2023-05-25T01:26:22;98975.00;;;5.89;100.00
20394;BME280;10356;50.544;9.642;2023-05-25T01:28:52;98976.06;;;5.85;100.00
20394;BME280;10356;50.544;9.642;2023-05-25T01:31:21;98977.72;;;5.86;100.00
20394;BME280;10356;50.544;9.642;2023-05-25T01:33:48;98970.22;;;5.80;100.00
20394;BME280;10356;50.544;9.642;2023-05-25T01:36:15;98973.72;;;5.79;100.00
20394;BME280;10356;50.544;9.642;2023-05-25T01:38:43;98973.72;;;5.79;100.00
20394;BME280;10356;50.544;9.642;2023-05-25T01:41:10;98991.06;;;5.77;100.00
20394;BME280;10356;50.544;9.642;2023-05-25T01:43:36;98985.13;;;5.75;100.00
20394;BME280;10356;50.544;9.642;2023-05-25T01:46:10;98989.53;;;5.73;100.00
20394;BME280;10356;50.544;9.642;2023-05-25T01:48:44;98987.84;;;5.72;100.00
20394;BME280;10356;50.544;9.642;2023-05-25T01:51:20;98989.66;;;5.70;100.00
20394;BME280;10356;50.544;9.642;2023-05-25T01:53:57;98990.56;;;5.69;100.00
20394;BME280;10356;50.544;9.642;2023-05-25T01:56:26;98989.94;;;5.64;100.00
20394;BME280;10356;50.544;9.642;2023-05-25T01:58:54;98993.44;;;5.63;100.00
20394;BME280;10356;50.544;9.642;2023-05-25T02:01:23;98993.63;;;5.59;100.00
20394;BME280;10356;50.544;9.642;2023-05-25T02:03:51;98984.19;;;5.58;100.00
20394;BME280;10356;50.544;9.642;2023-05-25T02:06:18;98986.72;;;5.59;100.00
20394;BME280;10356;50.544;9.642;2023-05-25T02:08:45;98993.16;;;5.51;100.00
20394;BME280;10356;50.544;9.642;2023-05-25T02:11:13;98980.31;;;5.49;100.00
20394;BME280;10356;50.544;9.642;2023-05-25T02:13:39;98977.00;;;5.46;100.00
20394;BME280;10356;50.544;9.642;2023-05-25T02:16:06;98980.44;;;5.46;100.00
20394;BME280;10356;50.544;9.642;2023-05-25T02:18:33;98982.41;;;5.41;100.00
20394;BME280;10356;50.544;9.642;2023-05-25T02:21:00;98986.78;;;5.39;100.00
20394;BME280;10356;50.544;9.642;2023-05-25T02:23:26;98987.75;;;5.37;100.00
20394;BME280;10356;50.544;9.642;2023-05-25T02:25:53;98989.44;;;5.38;100.00
20394;BME280;10356;50.544;9.642;2023-05-25T02:28:21;98983.38;;;5.39;100.00
20394;BME280;10356;50.544;9.642;2023-05-25T02:30:47;98975.81;;;5.34;100.00
20394;BME280;10356;50.544;9.642;2023-05-25T02:33:14;98971.50;;;5.35;100.00
20394;BME280;10356;50.544;9.642;2023-05-25T02:35:41;98966.44;;;5.32;100.00
20394;BME280;10356;50.544;9.642;2023-05-25T02:38:08;98958.19;;;5.24;100.00
20394;BME280;10356;50.544;9.642;2023-05-25T02:40:34;98956.34;;;5.27;100.00
20394;BME280;10356;50.544;9.642;2023-05-25T02:43:01;98957.38;;;5.23;100.00
20394;BME280;10356;50.544;9.642;2023-05-25T02:45:29;98957.50;;;5.20;100.00
20394;BME280;10356;50.544;9.642;2023-05-25T02:47:55;98967.84;;;5.20;100.00
20394;BME280;10356;50.544;9.642;2023-05-25T02:50:22;98967.00;;;5.20;100.00
20394;BME280;10356;50.544;9.642;2023-05-25T02:52:48;98960.16;;;5.19;100.00
20394;BME280;10356;50.544;9.642;2023-05-25T02:55:15;98969.81;;;5.15;100.00
20394;BME280;10356;50.544;9.642;2023-05-25T02:57:43;98962.94;;;5.14;100.00
20394;BME280;10356;50.544;9.642;2023-05-25T03:00:10;98965.72;;;5.09;100.00
20394;BME280;10356;50.544;9.642;2023-05-25T03:02:38;98963.06;;;5.11;100.00
20394;BME280;10356;50.544;9.642;2023-05-25T03:05:05;98960.47;;;5.11;100.00
20394;BME280;10356;50.544;9.642;2023-05-25T03:07:33;98964.09;;;5.07;100.00
20394;BME280;10356;50.544;9.642;2023-05-25T03:09:59;98969.25;;;5.07;100.00
20394;BME280;10356;50.544;9.642;2023-05-25T03:12:26;98973.53;;;5.08;100.00
20394;BME280;10356;50.544;9.642;2023-05-25T03:14:52;98975.22;;;5.09;100.00
20394;BME280;10356;50.544;9.642;2023-05-25T03:17:19;98980.53;;;5.06;100.00
20394;BME280;10356;50.544;9.642;2023-05-25T03:19:47;98980.63;;;5.03;100.00
20394;BME280;10356;50.544;9.642;2023-05-25T03:22:13;98977.16;;;5.04;100.00
20394;BME280;10356;50.544;9.642;2023-05-25T03:24:40;98978.97;;;5.02;100.00
20394;BME280;10356;50.544;9.642;2023-05-25T03:27:06;98984.16;;;5.02;100.00
20394;BME280;10356;50.544;9.642;2023-05-25T03:29:33;98989.31;;;5.02;100.00
20394;BME280;10356;50.544;9.642;2023-05-25T03:31:59;98992.78;;;5.01;100.00
20394;BME280;10356;50.544;9.642;2023-05-25T03:34:27;98996.13;;;5.03;100.00
20394;BME280;10356;50.544;9.642;2023-05-25T03:36:56;98999.50;;;5.05;100.00
20394;BME280;10356;50.544;9.642;2023-05-25T03:39:23;98999.50;;;5.05;100.00
20394;BME280;10356;50.544;9.642;2023-05-25T03:41:49;99007.03;;;5.09;100.00
20394;BME280;10356;50.544;9.642;2023-05-25T03:44:16;99005.22;;;5.11;100.00
20394;BME280;10356;50.544;9.642;2023-05-25T03:46:42;99015.44;;;5.15;100.00
20394;BME280;10356;50.544;9.642;2023-05-25T03:49:09;99007.50;;;5.19;100.00
20394;BME280;10356;50.544;9.642;2023-05-25T03:51:38;99009.06;;;5.23;100.00
20394;BME280;10356;50.544;9.642;2023-05-25T03:54:06;99005.28;;;5.30;100.00
20394;BME280;10356;50.544;9.642;2023-05-25T03:56:32;99010.22;;;5.73;100.00
20394;BME280;10356;50.544;9.642;2023-05-25T03:58:59;99004.72;;;6.17;100.00
20394;BME280;10356;50.544;9.642;2023-05-25T04:01:25;99004.16;;;6.63;100.00
20394;BME280;10356;50.544;9.642;2023-05-25T04:03:54;98999.28;;;7.08;100.00
20394;BME280;10356;50.544;9.642;2023-05-25T04:06:21;98994.75;;;7.44;100.00
20394;BME280;10356;50.544;9.642;2023-05-25T04:08:49;98999.66;;;7.82;97.24
20394;BME280;10356;50.544;9.642;2023-05-25T04:11:17;98994.63;;;8.25;94.30
20394;BME280;10356;50.544;9.642;2023-05-25T04:13:44;98995.19;;;8.76;91.17
20394;BME280;10356;50.544;9.642;2023-05-25T04:16:10;98994.78;;;9.25;87.61
20394;BME280;10356;50.544;9.642;2023-05-25T04:18:37;98992.00;;;9.57;84.73
20394;BME280;10356;50.544;9.642;2023-05-25T04:21:04;98987.50;;;9.87;82.06
20394;BME280;10356;50.544;9.642;2023-05-25T04:23:30;98984.97;;;10.26;79.19
20394;BME280;10356;50.544;9.642;2023-05-25T04:25:58;98993.50;;;10.42;77.05
20394;BME280;10356;50.544;9.642;2023-05-25T04:28:26;98997.88;;;10.15;76.30
20394;BME280;10356;50.544;9.642;2023-05-25T04:30:53;98996.25;;;9.58;78.99
20394;BME280;10356;50.544;9.642;2023-05-25T04:33:21;99003.69;;;9.21;80.74
20394;BME280;10356;50.544;9.642;2023-05-25T04:35:47;99009.09;;;8.75;82.81
20394;BME280;10356;50.544;9.642;2023-05-25T04:38:14;99014.47;;;8.42;84.93
20394;BME280;10356;50.544;9.642;2023-05-25T04:40:41;99025.09;;;8.22;85.81
20394;BME280;10356;50.544;9.642;2023-05-25T04:43:10;99022.25;;;7.80;89.10
20394;BME280;10356;50.544;9.642;2023-05-25T04:45:39;99026.50;;;7.32;93.09
20394;BME280;10356;50.544;9.642;2023-05-25T04:48:05;99024.56;;;7.20;94.51
20394;BME280;10356;50.544;9.642;2023-05-25T04:50:32;99028.00;;;7.21;95.18
20394;BME280;10356;50.544;9.642;2023-05-25T04:52:58;99037.78;;;7.31;95.00
20394;BME280;10356;50.544;9.642;2023-05-25T04:55:25;99038.53;;;7.33;95.29
20394;BME280;10356;50.544;9.642;2023-05-25T04:57:52;99031.38;;;7.38;95.85
20394;BME280;10356;50.544;9.642;2023-05-25T05:00:19;99033.41;;;7.49;96.06
20394;BME280;10356;50.544;9.642;2023-05-25T05:02:47;99029.03;;;7.49;97.08
20394;BME280;10356;50.544;9.642;2023-05-25T05:05:14;99026.31;;;7.52;98.15
20394;BME280;10356;50.544;9.642;2023-05-25T05:07:40;99021.88;;;7.54;98.57
20394;BME280;10356;50.544;9.642;2023-05-25T05:10:07;99023.16;;;7.63;98.52
20394;BME280;10356;50.544;9.642;2023-05-25T05:12:34;99026.25;;;7.70;98.07
20394;BME280;10356;50.544;9.642;2023-05-25T05:15:01;99030.94;;;7.79;98.22
20394;BME280;10356;50.544;9.642;2023-05-25T05:17:27;99036.81;;;7.82;98.30
20394;BME280;10356;50.544;9.642;2023-05-25T05:19:56;99048.53;;;7.89;98.17
20394;BME280;10356;50.544;9.642;2023-05-25T05:22:22;99054.25;;;7.96;98.56
20394;BME280;10356;50.544;9.642;2023-05-25T05:24:49;99057.94;;;7.92;100.00
20394;BME280;10356;50.544;9.642;2023-05-25T05:27:16;99065.53;;;8.10;100.00
20394;BME280;10356;50.544;9.642;2023-05-25T05:29:42;99068.84;;;8.29;100.00
20394;BME280;10356;50.544;9.642;2023-05-25T05:32:09;99081.56;;;8.34;99.54
20394;BME280;10356;50.544;9.642;2023-05-25T05:34:35;99076.03;;;8.40;99.53
20394;BME280;10356;50.544;9.642;2023-05-25T05:37:03;99073.97;;;8.61;98.75
20394;BME280;10356;50.544;9.642;2023-05-25T05:39:30;99087.03;;;8.75;98.93
20394;BME280;10356;50.544;9.642;2023-05-25T05:41:56;99079.16;;;8.76;98.90
20394;BME280;10356;50.544;9.642;2023-05-25T05:44:23;99085.13;;;8.78;98.18
20394;BME280;10356;50.544;9.642;2023-05-25T05:46:50;99091.06;;;8.80;96.92
20394;BME280;10356;50.544;9.642;2023-05-25T05:49:16;99082.91;;;8.86;97.48
20394;BME280;10356;50.544;9.642;2023-05-25T05:51:43;99095.56;;;8.92;97.63
20394;BME280;10356;50.544;9.642;2023-05-25T05:54:10;99096.53;;;9.05;98.46
20394;BME280;10356;50.544;9.642;2023-05-25T05:56:37;99098.81;;;9.40;98.52
20394;BME280;10356;50.544;9.642;2023-05-25T05:59:03;99097.56;;;9.47;96.82
20394;BME280;10356;50.544;9.642;2023-05-25T06:01:30;99103.88;;;9.57;97.92
20394;BME280;10356;50.544;9.642;2023-05-25T06:03:57;99101.75;;;9.77;97.01
20394;BME280;10356;50.544;9.642;2023-05-25T06:06:23;99098.47;;;10.02;95.81
20394;BME280;10356;50.544;9.642;2023-05-25T06:08:50;99098.09;;;10.22;94.05
20394;BME280;10356;50.544;9.642;2023-05-25T06:11:18;99110.00;;;10.40;93.18
20394;BME280;10356;50.544;9.642;2023-05-25T06:13:44;99115.19;;;10.54;92.88
20394;BME280;10356;50.544;9.642;2023-05-25T06:16:11;99100.31;;;10.95;91.63
20394;BME280;10356;50.544;9.642;2023-05-25T06:18:37;99104.94;;;11.17;90.72
20394;BME280;10356;50.544;9.642;2023-05-25T06:21:04;99102.91;;;11.60;88.99
20394;BME280;10356;50.544;9.642;2023-05-25T06:23:31;99116.91;;;11.97;89.15
20394;BME280;10356;50.544;9.642;2023-05-25T06:26:02;99113.63;;;12.31;86.37
20394;BME280;10356;50.544;9.642;2023-05-25T06:28:30;99117.69;;;12.35;83.63
20394;BME280;10356;50.544;9.642;2023-05-25T06:30:56;99112.63;;;12.44;82.85
20394;BME280;10356;50.544;9.642;2023-05-25T06:33:23;99104.28;;;12.39;83.49
20394;BME280;10356;50.544;9.642;2023-05-25T06:35:50;99107.94;;;12.73;82.56
20394;BME280;10356;50.544;9.642;2023-05-25T06:38:16;99106.31;;;12.59;81.03
20394;BME280;10356;50.544;9.642;2023-05-25T06:40:43;99105.78;;;12.91;81.15
20394;BME280;10356;50.544;9.642;2023-05-25T06:43:09;99102.78;;;13.08;83.77
20394;BME280;10356;50.544;9.642;2023-05-25T06:45:37;99102.91;;;13.17;79.37
20394;BME280;10356;50.544;9.642;2023-05-25T06:48:04;99100.94;;;13.32;78.57
20394;BME280;10356;50.544;9.642;2023-05-25T06:50:30;99096.41;;;13.23;80.77
20394;BME280;10356;50.544;9.642;2023-05-25T06:52:57;99089.84;;;13.63;76.96
20394;BME280;10356;50.544;9.642;2023-05-25T06:55:23;99101.50;;;13.92;76.64
20394;BME280;10356;50.544;9.642;2023-05-25T06:57:50;99099.25;;;14.10;75.92
20394;BME280;10356;50.544;9.642;2023-05-25T07:00:18;99098.81;;;14.38;74.11
20394;BME280;10356;50.544;9.642;2023-05-25T07:02:46;99088.38;;;14.59;73.42
20394;BME280;10356;50.544;9.642;2023-05-25T07:05:13;99088.63;;;14.56;73.31
20394;BME280;10356;50.544;9.642;2023-05-25T07:07:39;99098.31;;;14.44;75.16
20394;BME280;10356;50.544;9.642;2023-05-25T07:10:07;99103.25;;;14.69;72.89
20394;BME280;10356;50.544;9.642;2023-05-25T07:12:34;99101.31;;;15.03;72.77
20394;BME280;10356;50.544;9.642;2023-05-25T07:15:01;99101.41;;;15.44;70.62
20394;BME280;10356;50.544;9.642;2023-05-25T07:17:27;99090.75;;;15.46;69.88
20394;BME280;10356;50.544;9.642;2023-05-25T07:19:56;99097.41;;;15.70;67.97
20394;BME280;10356;50.544;9.642;2023-05-25T07:22:24;99087.72;;;15.91;68.12
20394;BME280;10356;50.544;9.642;2023-05-25T07:24:50;99079.38;;;15.56;69.36
20394;BME280;10356;50.544;9.642;2023-05-25T07:27:17;99077.97;;;15.82;68.33
20394;BME280;10356;50.544;9.642;2023-05-25T07:29:44;99091.44;;;15.27;69.11
20394;BME280;10356;50.544;9.642;2023-05-25T07:32:11;99088.91;;;15.05;69.23
20394;BME280;10356;50.544;9.642;2023-05-25T07:34:37;99081.09;;;15.46;66.97
20394;BME280;10356;50.544;9.642;2023-05-25T07:37:05;99081.56;;;16.12;66.51
20394;BME280;10356;50.544;9.642;2023-05-25T07:39:31;99084.41;;;16.39;61.21
20394;BME280;10356;50.544;9.642;2023-05-25T07:41:58;99089.41;;;16.42;60.30
20394;BME280;10356;50.544;9.642;2023-05-25T07:44:26;99093.09;;;16.60;61.07
20394;BME280;10356;50.544;9.642;2023-05-25T07:46:53;99089.19;;;16.15;60.46
20394;BME280;10356;50.544;9.642;2023-05-25T07:49:19;99098.25;;;16.31;58.49
20394;BME280;10356;50.544;9.642;2023-05-25T07:51:46;99084.56;;;16.37;58.89
20394;BME280;10356;50.544;9.642;2023-05-25T07:54:14;99090.16;;;16.14;59.33
20394;BME280;10356;50.544;9.642;2023-05-25T07:56:40;99094.81;;;16.10;59.95
20394;BME280;10356;50.544;9.642;2023-05-25T07:59:07;99087.13;;;16.58;58.14
20394;BME280;10356;50.544;9.642;2023-05-25T08:01:34;99089.75;;;15.88;57.71
20394;BME280;10356;50.544;9.642;2023-05-25T08:04:01;99098.66;;;15.46;59.98
20394;BME280;10356;50.544;9.642;2023-05-25T08:06:27;99092.97;;;15.91;59.13
20394;BME280;10356;50.544;9.642;2023-05-25T08:08:53;99083.75;;;16.07;58.67
20394;BME280;10356;50.544;9.642;2023-05-25T08:11:22;99083.28;;;16.32;58.77
20394;BME280;10356;50.544;9.642;2023-05-25T08:13:50;99097.25;;;15.92;59.31
20394;BME280;10356;50.544;9.642;2023-05-25T08:16:16;99091.41;;;15.79;57.62
20394;BME280;10356;50.544;9.642;2023-05-25T08:18:43;99082.47;;;16.41;57.39
20394;BME280;10356;50.544;9.642;2023-05-25T08:21:10;99088.06;;;16.57;57.31
20394;BME280;10356;50.544;9.642;2023-05-25T08:23:37;99096.03;;;16.36;56.29
20394;BME280;10356;50.544;9.642;2023-05-25T08:26:07;99099.28;;;16.10;54.97
20394;BME280;10356;50.544;9.642;2023-05-25T08:28:34;99089.47;;;16.61;55.46
20394;BME280;10356;50.544;9.642;2023-05-25T08:31:01;99089.13;;;16.45;54.73
20394;BME280;10356;50.544;9.642;2023-05-25T08:33:28;99086.97;;;16.59;53.85
20394;BME280;10356;50.544;9.642;2023-05-25T08:35:54;99085.53;;;16.46;54.59
20394;BME280;10356;50.544;9.642;2023-05-25T08:38:21;99077.59;;;16.76;52.76
20394;BME280;10356;50.544;9.642;2023-05-25T08:40:56;99078.72;;;17.02;54.58
20394;BME280;10356;50.544;9.642;2023-05-25T08:43:24;99087.56;;;17.20;52.52
20394;BME280;10356;50.544;9.642;2023-05-25T08:45:52;99087.97;;;17.25;52.81
20394;BME280;10356;50.544;9.642;2023-05-25T08:48:20;99081.34;;;17.02;54.56
20394;BME280;10356;50.544;9.642;2023-05-25T08:50:48;99085.63;;;17.03;55.24
20394;BME280;10356;50.544;9.642;2023-05-25T08:53:15;99080.38;;;16.94;54.59
20394;BME280;10356;50.544;9.642;2023-05-25T08:55:44;99093.13;;;16.98;55.59
20394;BME280;10356;50.544;9.642;2023-05-25T08:58:15;99082.72;;;17.35;53.54
20394;BME280;10356;50.544;9.642;2023-05-25T09:00:47;99079.31;;;17.81;52.63
20394;BME280;10356;50.544;9.642;2023-05-25T09:03:18;99085.06;;;17.94;51.40
20394;BME280;10356;50.544;9.642;2023-05-25T09:05:46;99090.44;;;17.55;53.12
20394;BME280;10356;50.544;9.642;2023-05-25T09:08:13;99084.34;;;17.65;51.50
20394;BME280;10356;50.544;9.642;2023-05-25T09:10:41;99088.22;;;17.41;52.29
20394;BME280;10356;50.544;9.642;2023-05-25T09:13:07;99090.16;;;17.39;51.81
20394;BME280;10356;50.544;9.642;2023-05-25T09:15:34;99101.03;;;17.92;51.00
20394;BME280;10356;50.544;9.642;2023-05-25T09:18:00;99088.06;;;17.72;49.91
20394;BME280;10356;50.544;9.642;2023-05-25T09:20:28;99099.78;;;17.96;50.25
20394;BME280;10356;50.544;9.642;2023-05-25T09:22:56;99091.91;;;18.23;49.88
20394;BME280;10356;50.544;9.642;2023-05-25T09:25:24;99103.41;;;18.59;50.06
20394;BME280;10356;50.544;9.642;2023-05-25T09:27:52;99100.69;;;18.14;50.72
20394;BME280;10356;50.544;9.642;2023-05-25T09:30:18;99105.59;;;18.00;48.78
20394;BME280;10356;50.544;9.642;2023-05-25T09:32:45;99104.19;;;17.69;49.28
20394;BME280;10356;50.544;9.642;2023-05-25T09:35:13;99113.31;;;17.74;51.22
20394;BME280;10356;50.544;9.642;2023-05-25T09:37:42;99106.41;;;18.10;49.17
20394;BME280;10356;50.544;9.642;2023-05-25T09:40:09;99101.75;;;18.58;47.61
20394;BME280;10356;50.544;9.642;2023-05-25T09:42:36;99110.53;;;18.49;47.70
20394;BME280;10356;50.544;9.642;2023-05-25T09:45:03;99098.88;;;18.15;47.88
20394;BME280;10356;50.544;9.642;2023-05-25T09:47:31;99104.56;;;18.20;49.52
20394;BME280;10356;50.544;9.642;2023-05-25T09:49:58;99099.56;;;18.17;49.70
20394;BME280;10356;50.544;9.642;2023-05-25T09:52:24;99098.09;;;18.86;50.06
20394;BME280;10356;50.544;9.642;2023-05-25T09:54:52;99103.78;;;18.00;48.77
20394;BME280;10356;50.544;9.642;2023-05-25T09:57:20;99100.72;;;18.05;48.33
20394;BME280;10356;50.544;9.642;2023-05-25T09:59:46;99098.13;;;18.59;48.59
20394;BME280;10356;50.544;9.642;2023-05-25T10:02:13;99099.25;;;18.57;47.70
20394;BME280;10356;50.544;9.642;2023-05-25T10:04:40;99091.84;;;18.33;48.43
20394;BME280;10356;50.544;9.642;2023-05-25T10:07:07;99098.22;;;19.20;47.58
20394;BME280;10356;50.544;9.642;2023-05-25T10:09:38;99100.13;;;19.45;46.99
20394;BME280;10356;50.544;9.642;2023-05-25T10:12:07;99095.06;;;18.81;47.29
20394;BME280;10356;50.544;9.642;2023-05-25T10:14:36;99092.91;;;18.94;46.88
20394;BME280;10356;50.544;9.642;2023-05-25T10:17:04;99093.53;;;19.32;46.92
20394;BME280;10356;50.544;9.642;2023-05-25T10:19:33;99093.03;;;19.28;47.23
20394;BME280;10356;50.544;9.642;2023-05-25T10:22:03;99091.28;;;18.84;47.18
20394;BME280;10356;50.544;9.642;2023-05-25T10:24:36;99101.13;;;18.37;48.36
20394;BME280;10356;50.544;9.642;2023-05-25T10:27:07;99100.00;;;18.49;48.29
20394;BME280;10356;50.544;9.642;2023-05-25T10:29:36;99097.84;;;18.80;48.08
20394;BME280;10356;50.544;9.642;2023-05-25T10:32:05;99105.78;;;18.97;46.57
20394;BME280;10356;50.544;9.642;2023-05-25T10:34:32;99112.94;;;18.87;47.42
20394;BME280;10356;50.544;9.642;2023-05-25T10:37:00;99096.84;;;18.63;46.61
20394;BME280;10356;50.544;9.642;2023-05-25T10:39:29;99098.25;;;19.02;47.35
20394;BME280;10356;50.544;9.642;2023-05-25T10:41:57;99097.84;;;18.62;46.45
20394;BME280;10356;50.544;9.642;2023-05-25T10:44:25;99103.97;;;19.15;45.97
20394;BME280;10356;50.544;9.642;2023-05-25T10:46:52;99096.88;;;18.98;45.29
20394;BME280;10356;50.544;9.642;2023-05-25T10:49:29;99100.50;;;19.33;44.70
20394;BME280;10356;50.544;9.642;2023-05-25T10:51:57;99090.81;;;19.59;44.39
20394;BME280;10356;50.544;9.642;2023-05-25T10:54:28;99091.59;;;18.98;46.38
20394;BME280;10356;50.544;9.642;2023-05-25T10:57:08;99093.78;;;19.38;43.12
20394;BME280;10356;50.544;9.642;2023-05-25T10:59:39;99085.31;;;19.52;43.43
20394;BME280;10356;50.544;9.642;2023-05-25T11:02:06;99079.88;;;20.13;44.70
20394;BME280;10356;50.544;9.642;2023-05-25T11:04:33;99083.13;;;19.99;44.73
20394;BME280;10356;50.544;9.642;2023-05-25T11:07:06;99089.63;;;19.79;45.44
20394;BME280;10356;50.544;9.642;2023-05-25T11:09:40;99089.25;;;19.74;44.71
20394;BME280;10356;50.544;9.642;2023-05-25T11:12:17;99085.56;;;20.26;44.62
20394;BME280;10356;50.544;9.642;2023-05-25T11:15:10;99087.41;;;20.26;43.01
20394;BME280;10356;50.544;9.642;2023-05-25T11:17:56;99093.09;;;19.79;43.83
20394;BME280;10356;50.544;9.642;2023-05-25T11:20:26;99077.31;;;20.21;43.78
20394;BME280;10356;50.544;9.642;2023-05-25T11:22:53;99075.22;;;20.07;44.70
20394;BME280;10356;50.544;9.642;2023-05-25T11:25:37;99070.50;;;20.68;44.29
20394;BME280;10356;50.544;9.642;2023-05-25T11:28:04;99072.84;;;20.79;45.86
20394;BME280;10356;50.544;9.642;2023-05-25T11:30:33;99070.94;;;20.14;45.29
20394;BME280;10356;50.544;9.642;2023-05-25T11:33:01;99059.69;;;20.46;44.79
20394;BME280;10356;50.544;9.642;2023-05-25T11:35:29;99064.13;;;20.37;44.65
20394;BME280;10356;50.544;9.642;2023-05-25T11:37:58;99071.06;;;19.71;45.22
20394;BME280;10356;50.544;9.642;2023-05-25T11:40:28;99064.75;;;19.97;44.88
20394;BME280;10356;50.544;9.642;2023-05-25T11:42:55;99064.84;;;20.14;46.38
20394;BME280;10356;50.544;9.642;2023-05-25T11:45:22;99061.16;;;20.48;44.75
20394;BME280;10356;50.544;9.642;2023-05-25T11:47:51;99060.59;;;20.70;45.39
20394;BME280;10356;50.544;9.642;2023-05-25T11:50:18;99055.59;;;20.75;45.76
20394;BME280;10356;50.544;9.642;2023-05-25T11:52:45;99065.78;;;21.04;43.88
20394;BME280;10356;50.544;9.642;2023-05-25T11:55:12;99053.34;;;20.97;42.83
20394;BME280;10356;50.544;9.642;2023-05-25T11:57:39;99052.97;;;20.91;42.46
20394;BME280;10356;50.544;9.642;2023-05-25T12:00:07;99055.88;;;20.56;43.02
20394;BME280;10356;50.544;9.642;2023-05-25T12:02:36;99050.00;;;20.78;42.47
20394;BME280;10356;50.544;9.642;2023-05-25T12:05:05;99052.19;;;21.15;43.05
20394;BME280;10356;50.544;9.642;2023-05-25T12:07:33;99058.28;;;21.00;42.46
20394;BME280;10356;50.544;9.642;2023-05-25T12:10:05;99056.00;;;21.29;43.18
20394;BME280;10356;50.544;9.642;2023-05-25T12:12:39;99051.03;;;21.02;43.51
20394;BME280;10356;50.544;9.642;2023-05-25T12:15:07;99053.69;;;21.02;42.45
20394;BME280;10356;50.544;9.642;2023-05-25T12:17:35;99048.38;;;21.02;42.34
20394;BME280;10356;50.544;9.642;2023-05-25T12:20:02;99043.53;;;20.81;44.08
20394;BME280;10356;50.544;9.642;2023-05-25T12:22:31;99048.72;;;21.15;42.25
20394;BME280;10356;50.544;9.642;2023-05-25T12:24:57;99046.59;;;20.44;45.53
20394;BME280;10356;50.544;9.642;2023-05-25T12:27:24;99045.34;;;20.72;45.63
20394;BME280;10356;50.544;9.642;2023-05-25T12:29:51;99041.53;;;20.83;46.08
20394;BME280;10356;50.544;9.642;2023-05-25T12:32:18;99039.94;;;21.22;44.01
20394;BME280;10356;50.544;9.642;2023-05-25T12:34:45;99036.59;;;21.44;43.43
20394;BME280;10356;50.544;9.642;2023-05-25T12:37:18;99026.81;;;21.45;43.71
20394;BME280;10356;50.544;9.642;2023-05-25T12:39:47;99032.94;;;21.45;44.09
20394;BME280;10356;50.544;9.642;2023-05-25T12:42:15;99036.25;;;21.47;43.30
20394;BME280;10356;50.544;9.642;2023-05-25T12:44:42;99032.59;;;21.56;42.40
20394;BME280;10356;50.544;9.642;2023-05-25T12:47:12;99040.22;;;21.51;42.31
20394;BME280;10356;50.544;9.642;2023-05-25T12:49:39;99021.16;;;21.48;42.78
20394;BME280;10356;50.544;9.642;2023-05-25T12:52:07;99016.78;;;21.79;41.67
20394;BME280;10356;50.544;9.642;2023-05-25T12:54:40;99022.19;;;21.39;41.25
20394;BME280;10356;50.544;9.642;2023-05-25T12:57:10;99025.41;;;21.89;41.58
20394;BME280;10356;50.544;9.642;2023-05-25T12:59:39;99027.38;;;21.95;41.40
20394;BME280;10356;50.544;9.642;2023-05-25T13:02:05;99016.31;;;21.67;43.10
20394;BME280;10356;50.544;9.642;2023-05-25T13:04:32;99025.94;;;21.68;44.02
20394;BME280;10356;50.544;9.642;2023-05-25T13:06:59;99025.75;;;21.86;44.11